sensor_id;sensor_type;location;lat;lon;timestamp;temperature;humidity
1225;DHT22;602;48.000;7.840;2022-12-01T00:01:26;9.40;99.90
1225;DHT22;602;48.000;7.840;2022-12-01T00:03:56;9.40;99.90
1225;DHT22;602;48.000;7.840;2022-12-01T00:06:22;9.20;99.90
1225;DHT22;602;48.000;7.840;2022-12-01T00:08:51;9.30;99.90
1225;DHT22;602;48.000;7.840;2022-12-01T00:11:39;9.20;99.90
1225;DHT22;602;48.000;7.840;2022-12-01T00:14:10;9.20;99.90
1225;DHT22;602;48.000;7.840;2022-12-01T00:16:37;9.20;99.90
1225;DHT22;602;48.000;7.840;2022-12-01T00:19:13;9.10;99.90
1225;DHT22;602;48.000;7.840;2022-12-01T00:21:44;9.10;99.90
1225;DHT22;602;48.000;7.840;2022-12-01T00:24:13;9.10;99.90
1225;DHT22;602;48.000;7.840;2022-12-01T00:26:40;9.10;99.90
1225;DHT22;602;48.000;7.840;2022-12-01T00:29:07;9.20;99.90
1225;DHT22;602;48.000;7.840;2022-12-01T00:31:35;9.20;99.90
1225;DHT22;602;48.000;7.840;2022-12-01T00:34:02;9.20;99.90
1225;DHT22;602;48.000;7.840;2022-12-01T00:36:32;9.10;99.90
1225;DHT22;602;48.000;7.840;2022-12-01T00:38:59;9.10;99.90
1225;DHT22;602;48.000;7.840;2022-12-01T00:41:25;9.20;99.90
1225;DHT22;602;48.000;7.840;2022-12-01T00:43:52;9.20;99.90
1225;DHT22;602;48.000;7.840;2022-12-01T00:46:19;9.30;99.90
1225;DHT22;602;48.000;7.840;2022-12-01T00:48:47;9.30;99.90
1225;DHT22;602;48.000;7.840;2022-12-01T00:51:16;9.40;99.90
1225;DHT22;602;48.000;7.840;2022-12-01T00:53:44;9.40;99.90
1225;DHT22;602;48.000;7.840;2022-12-01T00:56:19;9.40;99.90
1225;DHT22;602;48.000;7.840;2022-12-01T00:58:46;9.40;99.90
1225;DHT22;602;48.000;7.840;2022-12-01T01:01:13;9.40;99.90
1225;DHT22;602;48.000;7.840;2022-12-01T01:03:45;9.30;99.90
1225;DHT22;602;48.000;7.840;2022-12-01T01:06:13;9.20;99.90
1225;DHT22;602;48.000;7.840;2022-12-01T01:08:40;9.20;99.90
1225;DHT22;602;48.000;7.840;2022-12-01T01:11:09;9.30;99.90
1225;DHT22;602;48.000;7.840;2022-12-01T01:13:36;9.30;99.90
1225;DHT22;602;48.000;7.840;2022-12-01T01:16:09;9.30;99.90
1225;DHT22;602;48.000;7.840;2022-12-01T01:18:39;9.20;99.90
1225;DHT22;602;48.000;7.840;2022-12-01T01:21:07;9.20;99.90
1225;DHT22;602;48.000;7.840;2022-12-01T01:23:37;9.10;99.90
1225;DHT22;602;48.000;7.840;2022-12-01T01:26:06;9.10;99.90
1225;DHT22;602;48.000;7.840;2022-12-01T01:28:33;9.10;99.90
1225;DHT22;602;48.000;7.840;2022-12-01T01:31:06;9.20;99.90
1225;DHT22;602;48.000;7.840;2022-12-01T01:33:36;9.20;99.90
1225;DHT22;602;48.000;7.840;2022-12-01T01:36:04;9.20;99.90
1225;DHT22;602;48.000;7.840;2022-12-01T01:38:31;9.20;99.90
1225;DHT22;602;48.000;7.840;2022-12-01T01:41:00;9.20;99.90
1225;DHT22;602;48.000;7.840;2022-12-01T01:43:42;9.30;99.90
1225;DHT22;602;48.000;7.840;2022-12-01T01:46:13;9.20;99.90
1225;DHT22;602;48.000;7.840;2022-12-01T01:48:46;9.10;99.90
1225;DHT22;602;48.000;7.840;2022-12-01T01:51:14;9.10;99.90
1225;DHT22;602;48.000;7.840;2022-12-01T01:53:44;8.90;99.90
1225;DHT22;602;48.000;7.840;2022-12-01T01:56:13;9.00;99.90
1225;DHT22;602;48.000;7.840;2022-12-01T01:58:40;8.90;99.90
1225;DHT22;602;48.000;7.840;2022-12-01T02:01:07;8.90;99.90
1225;DHT22;602;48.000;7.840;2022-12-01T02:03:36;8.90;99.90
1225;DHT22;602;48.000;7.840;2022-12-01T02:06:04;8.80;99.90
1225;DHT22;602;48.000;7.840;2022-12-01T02:08:33;8.70;99.90
1225;DHT22;602;48.000;7.840;2022-12-01T02:11:16;8.50;99.90
1225;DHT22;602;48.000;7.840;2022-12-01T02:13:49;8.50;99.90
1225;DHT22;602;48.000;7.840;2022-12-01T02:16:26;8.50;99.90
1225;DHT22;602;48.000;7.840;2022-12-01T02:19:01;8.50;99.90
1225;DHT22;602;48.000;7.840;2022-12-01T02:21:41;8.60;99.90
1225;DHT22;602;48.000;7.840;2022-12-01T02:24:51;8.50;99.90
1225;DHT22;602;48.000;7.840;2022-12-01T02:27:29;8.40;99.90
1225;DHT22;602;48.000;7.840;2022-12-01T02:30:07;8.40;99.90
1225;DHT22;602;48.000;7.840;2022-12-01T02:32:46;8.40;99.90
1225;DHT22;602;48.000;7.840;2022-12-01T02:35:19;8.40;99.90
1225;DHT22;602;48.000;7.840;2022-12-01T02:37:54;8.50;99.90
1225;DHT22;602;48.000;7.840;2022-12-01T02:40:25;8.50;99.90
1225;DHT22;602;48.000;7.840;2022-12-01T02:42:58;8.60;99.90
1225;DHT22;602;48.000;7.840;2022-12-01T02:45:34;8.40;99.90
1225;DHT22;602;48.000;7.840;2022-12-01T02:48:06;8.40;99.90
1225;DHT22;602;48.000;7.840;2022-12-01T02:50:34;8.30;99.90
1225;DHT22;602;48.000;7.840;2022-12-01T02:53:05;8.30;99.90
1225;DHT22;602;48.000;7.840;2022-12-01T02:55:33;8.30;99.90
1225;DHT22;602;48.000;7.840;2022-12-01T02:58:00;8.10;99.90
1225;DHT22;602;48.000;7.840;2022-12-01T03:00:29;8.20;99.90
1225;DHT22;602;48.000;7.840;2022-12-01T03:03:10;8.10;99.90
1225;DHT22;602;48.000;7.840;2022-12-01T03:05:47;8.00;99.90
1225;DHT22;602;48.000;7.840;2022-12-01T03:08:25;8.20;99.90
1225;DHT22;602;48.000;7.840;2022-12-01T03:10:55;8.10;99.90
1225;DHT22;602;48.000;7.840;2022-12-01T03:13:31;8.10;99.90
1225;DHT22;602;48.000;7.840;2022-12-01T03:16:02;8.00;99.90
1225;DHT22;602;48.000;7.840;2022-12-01T03:18:36;8.00;99.90
1225;DHT22;602;48.000;7.840;2022-12-01T03:21:08;8.10;99.90
1225;DHT22;602;48.000;7.840;2022-12-01T03:23:39;8.10;99.90
1225;DHT22;602;48.000;7.840;2022-12-01T03:26:09;8.00;99.90
1225;DHT22;602;48.000;7.840;2022-12-01T03:28:41;8.10;99.90
1225;DHT22;602;48.000;7.840;2022-12-01T03:31:12;8.20;99.90
1225;DHT22;602;48.000;7.840;2022-12-01T03:33:46;8.00;99.90
1225;DHT22;602;48.000;7.840;2022-12-01T03:36:18;7.90;99.90
1225;DHT22;602;48.000;7.840;2022-12-01T03:38:50;8.00;99.90
1225;DHT22;602;48.000;7.840;2022-12-01T03:41:27;7.90;99.90
1225;DHT22;602;48.000;7.840;2022-12-01T03:43:58;7.80;99.90
1225;DHT22;602;48.000;7.840;2022-12-01T03:46:34;7.80;99.90
1225;DHT22;602;48.000;7.840;2022-12-01T03:49:07;7.80;99.90
1225;DHT22;602;48.000;7.840;2022-12-01T03:51:39;7.80;99.90
1225;DHT22;602;48.000;7.840;2022-12-01T03:54:13;7.80;99.90
1225;DHT22;602;48.000;7.840;2022-12-01T03:56:45;7.80;99.90
1225;DHT22;602;48.000;7.840;2022-12-01T03:59:14;7.80;99.90
1225;DHT22;602;48.000;7.840;2022-12-01T04:01:41;7.80;99.90
1225;DHT22;602;48.000;7.840;2022-12-01T04:04:12;7.90;99.90
1225;DHT22;602;48.000;7.840;2022-12-01T04:06:40;7.90;99.90
1225;DHT22;602;48.000;7.840;2022-12-01T04:09:08;8.00;99.90
1225;DHT22;602;48.000;7.840;2022-12-01T04:11:35;8.00;99.90
1225;DHT22;602;48.000;7.840;2022-12-01T04:14:19;7.90;99.90
1225;DHT22;602;48.000;7.840;2022-12-01T04:16:46;7.90;99.90
1225;DHT22;602;48.000;7.840;2022-12-01T04:19:14;7.90;99.90
1225;DHT22;602;48.000;7.840;2022-12-01T04:21:41;7.90;99.90
1225;DHT22;602;48.000;7.840;2022-12-01T04:24:08;7.90;99.90
1225;DHT22;602;48.000;7.840;2022-12-01T04:26:36;7.90;99.90
1225;DHT22;602;48.000;7.840;2022-12-01T04:29:06;8.00;99.90
1225;DHT22;602;48.000;7.840;2022-12-01T04:31:33;7.90;99.90
1225;DHT22;602;48.000;7.840;2022-12-01T04:34:00;7.70;99.90
1225;DHT22;602;48.000;7.840;2022-12-01T04:36:30;7.70;99.90
1225;DHT22;602;48.000;7.840;2022-12-01T04:38:57;7.70;99.90
1225;DHT22;602;48.000;7.840;2022-12-01T04:41:24;7.70;99.90
1225;DHT22;602;48.000;7.840;2022-12-01T04:43:52;7.60;99.90
1225;DHT22;602;48.000;7.840;2022-12-01T04:46:19;7.60;99.90
1225;DHT22;602;48.000;7.840;2022-12-01T04:48:46;7.60;99.90
1225;DHT22;602;48.000;7.840;2022-12-01T04:51:13;7.50;99.90
1225;DHT22;602;48.000;7.840;2022-12-01T04:53:41;7.50;99.90
1225;DHT22;602;48.000;7.840;2022-12-01T04:56:08;7.60;99.90
1225;DHT22;602;48.000;7.840;2022-12-01T04:58:35;7.70;99.90
1225;DHT22;602;48.000;7.840;2022-12-01T05:01:03;7.70;99.90
1225;DHT22;602;48.000;7.840;2022-12-01T05:03:31;7.80;99.90
1225;DHT22;602;48.000;7.840;2022-12-01T05:06:01;7.70;99.90
1225;DHT22;602;48.000;7.840;2022-12-01T05:08:28;7.60;99.90
1225;DHT22;602;48.000;7.840;2022-12-01T05:10:56;7.60;99.90
1225;DHT22;602;48.000;7.840;2022-12-01T05:13:23;7.60;99.90
1225;DHT22;602;48.000;7.840;2022-12-01T05:15:50;7.60;99.90
1225;DHT22;602;48.000;7.840;2022-12-01T05:18:17;7.60;99.90
1225;DHT22;602;48.000;7.840;2022-12-01T05:20:44;7.60;99.90
1225;DHT22;602;48.000;7.840;2022-12-01T05:23:22;7.60;99.90
1225;DHT22;602;48.000;7.840;2022-12-01T05:25:49;7.70;99.90
1225;DHT22;602;48.000;7.840;2022-12-01T05:28:17;7.70;99.90
1225;DHT22;602;48.000;7.840;2022-12-01T05:30:44;7.60;99.90
1225;DHT22;602;48.000;7.840;2022-12-01T05:33:11;7.60;99.90
1225;DHT22;602;48.000;7.840;2022-12-01T05:35:38;7.70;99.90
1225;DHT22;602;48.000;7.840;2022-12-01T05:38:05;7.70;99.90
1225;DHT22;602;48.000;7.840;2022-12-01T05:40:33;7.70;99.90
1225;DHT22;602;48.000;7.840;2022-12-01T05:42:59;7.70;99.90
1225;DHT22;602;48.000;7.840;2022-12-01T05:45:28;7.70;99.90
1225;DHT22;602;48.000;7.840;2022-12-01T05:47:55;7.60;99.90
1225;DHT22;602;48.000;7.840;2022-12-01T05:50:22;7.60;99.90
1225;DHT22;602;48.000;7.840;2022-12-01T05:52:49;7.50;99.90
1225;DHT22;602;48.000;7.840;2022-12-01T05:55:16;7.40;99.90
1225;DHT22;602;48.000;7.840;2022-12-01T05:57:43;7.30;99.90
1225;DHT22;602;48.000;7.840;2022-12-01T06:00:11;7.30;99.90
1225;DHT22;602;48.000;7.840;2022-12-01T06:02:40;7.30;99.90
1225;DHT22;602;48.000;7.840;2022-12-01T06:05:08;7.20;99.90
1225;DHT22;602;48.000;7.840;2022-12-01T06:07:35;7.10;99.90
1225;DHT22;602;48.000;7.840;2022-12-01T06:10:05;7.10;99.90
1225;DHT22;602;48.000;7.840;2022-12-01T06:12:32;7.20;99.90
1225;DHT22;602;48.000;7.840;2022-12-01T06:14:59;7.20;99.90
1225;DHT22;602;48.000;7.840;2022-12-01T06:17:26;7.10;99.90
1225;DHT22;602;48.000;7.840;2022-12-01T06:19:55;7.10;99.90
1225;DHT22;602;48.000;7.840;2022-12-01T06:22:21;7.10;99.90
1225;DHT22;602;48.000;7.840;2022-12-01T06:24:48;6.90;99.90
1225;DHT22;602;48.000;7.840;2022-12-01T06:27:15;6.90;99.90
1225;DHT22;602;48.000;7.840;2022-12-01T06:29:42;6.90;99.90
1225;DHT22;602;48.000;7.840;2022-12-01T06:32:09;6.80;99.90
1225;DHT22;602;48.000;7.840;2022-12-01T06:34:36;6.90;99.90
1225;DHT22;602;48.000;7.840;2022-12-01T06:37:04;6.90;99.90
1225;DHT22;602;48.000;7.840;2022-12-01T06:39:31;6.80;99.90
1225;DHT22;602;48.000;7.840;2022-12-01T06:41:58;7.00;99.90
1225;DHT22;602;48.000;7.840;2022-12-01T06:44:25;7.00;99.90
1225;DHT22;602;48.000;7.840;2022-12-01T06:46:52;7.00;99.90
1225;DHT22;602;48.000;7.840;2022-12-01T06:49:19;7.00;99.90
1225;DHT22;602;48.000;7.840;2022-12-01T06:51:46;7.00;99.90
1225;DHT22;602;48.000;7.840;2022-12-01T06:54:14;7.10;99.90
1225;DHT22;602;48.000;7.840;2022-12-01T06:56:42;7.00;99.90
1225;DHT22;602;48.000;7.840;2022-12-01T06:59:10;6.90;99.90
1225;DHT22;602;48.000;7.840;2022-12-01T07:01:37;6.80;99.90
1225;DHT22;602;48.000;7.840;2022-12-01T07:04:04;6.80;99.90
1225;DHT22;602;48.000;7.840;2022-12-01T07:06:31;7.00;99.90
1225;DHT22;602;48.000;7.840;2022-12-01T07:08:58;6.90;99.90
1225;DHT22;602;48.000;7.840;2022-12-01T07:11:26;6.90;99.90
1225;DHT22;602;48.000;7.840;2022-12-01T07:13:55;7.00;99.90
1225;DHT22;602;48.000;7.840;2022-12-01T07:16:22;7.10;99.90
1225;DHT22;602;48.000;7.840;2022-12-01T07:18:49;7.10;99.90
1225;DHT22;602;48.000;7.840;2022-12-01T07:21:17;7.20;99.90
1225;DHT22;602;48.000;7.840;2022-12-01T07:23:43;7.20;99.90
1225;DHT22;602;48.000;7.840;2022-12-01T07:26:12;7.00;99.90
1225;DHT22;602;48.000;7.840;2022-12-01T07:28:41;7.10;99.90
1225;DHT22;602;48.000;7.840;2022-12-01T07:31:10;7.10;99.90
1225;DHT22;602;48.000;7.840;2022-12-01T07:33:37;7.20;99.90
1225;DHT22;602;48.000;7.840;2022-12-01T07:36:05;7.10;99.90
1225;DHT22;602;48.000;7.840;2022-12-01T07:38:32;7.10;99.90
1225;DHT22;602;48.000;7.840;2022-12-01T07:41:03;7.10;99.90
1225;DHT22;602;48.000;7.840;2022-12-01T07:43:31;7.10;99.90
1225;DHT22;602;48.000;7.840;2022-12-01T07:46:04;7.10;99.90
1225;DHT22;602;48.000;7.840;2022-12-01T07:48:31;7.20;99.90
1225;DHT22;602;48.000;7.840;2022-12-01T07:51:00;7.20;99.90
1225;DHT22;602;48.000;7.840;2022-12-01T07:53:27;7.20;99.90
1225;DHT22;602;48.000;7.840;2022-12-01T07:55:54;7.20;99.90
1225;DHT22;602;48.000;7.840;2022-12-01T07:58:20;7.20;99.90
1225;DHT22;602;48.000;7.840;2022-12-01T08:00:47;7.30;99.90
1225;DHT22;602;48.000;7.840;2022-12-01T08:03:16;7.30;99.90
1225;DHT22;602;48.000;7.840;2022-12-01T08:05:43;7.30;99.90
1225;DHT22;602;48.000;7.840;2022-12-01T08:08:09;7.30;99.90
1225;DHT22;602;48.000;7.840;2022-12-01T08:10:36;7.20;99.90
1225;DHT22;602;48.000;7.840;2022-12-01T08:13:03;7.20;99.90
1225;DHT22;602;48.000;7.840;2022-12-01T08:15:31;7.30;99.90
1225;DHT22;602;48.000;7.840;2022-12-01T08:18:00;7.30;99.90
1225;DHT22;602;48.000;7.840;2022-12-01T08:20:29;7.20;99.90
1225;DHT22;602;48.000;7.840;2022-12-01T08:22:59;7.30;99.90
1225;DHT22;602;48.000;7.840;2022-12-01T08:25:26;7.20;99.90
1225;DHT22;602;48.000;7.840;2022-12-01T08:27:53;7.20;99.90
1225;DHT22;602;48.000;7.840;2022-12-01T08:30:20;7.20;99.90
1225;DHT22;602;48.000;7.840;2022-12-01T08:32:47;7.30;99.90
1225;DHT22;602;48.000;7.840;2022-12-01T08:35:14;7.40;99.90
1225;DHT22;602;48.000;7.840;2022-12-01T08:37:42;7.50;99.90
1225;DHT22;602;48.000;7.840;2022-12-01T08:40:10;7.50;99.90
1225;DHT22;602;48.000;7.840;2022-12-01T08:42:37;7.50;99.90
1225;DHT22;602;48.000;7.840;2022-12-01T08:45:04;7.50;99.90
1225;DHT22;602;48.000;7.840;2022-12-01T08:47:31;7.50;99.90
1225;DHT22;602;48.000;7.840;2022-12-01T08:49:58;7.40;99.90
1225;DHT22;602;48.000;7.840;2022-12-01T08:52:25;7.50;99.90
1225;DHT22;602;48.000;7.840;2022-12-01T08:54:58;7.50;99.90
1225;DHT22;602;48.000;7.840;2022-12-01T08:57:25;7.30;99.90
1225;DHT22;602;48.000;7.840;2022-12-01T08:59:51;7.30;99.90
1225;DHT22;602;48.000;7.840;2022-12-01T09:02:18;7.30;99.90
1225;DHT22;602;48.000;7.840;2022-12-01T09:04:47;7.30;99.90
1225;DHT22;602;48.000;7.840;2022-12-01T09:07:15;7.40;99.90
1225;DHT22;602;48.000;7.840;2022-12-01T09:09:43;7.30;99.90
1225;DHT22;602;48.000;7.840;2022-12-01T09:12:12;7.40;99.90
1225;DHT22;602;48.000;7.840;2022-12-01T09:14:41;7.40;99.90
1225;DHT22;602;48.000;7.840;2022-12-01T09:17:10;7.40;99.90
1225;DHT22;602;48.000;7.840;2022-12-01T09:19:37;7.40;99.90
1225;DHT22;602;48.000;7.840;2022-12-01T09:22:03;7.50;99.90
1225;DHT22;602;48.000;7.840;2022-12-01T09:24:30;7.50;99.90
1225;DHT22;602;48.000;7.840;2022-12-01T09:26:58;7.60;99.90
1225;DHT22;602;48.000;7.840;2022-12-01T09:29:27;7.60;99.90
1225;DHT22;602;48.000;7.840;2022-12-01T09:31:54;7.70;99.90
1225;DHT22;602;48.000;7.840;2022-12-01T09:34:22;7.60;99.90
1225;DHT22;602;48.000;7.840;2022-12-01T09:36:54;7.60;99.90
1225;DHT22;602;48.000;7.840;2022-12-01T09:39:22;7.50;99.90
1225;DHT22;602;48.000;7.840;2022-12-01T09:41:52;7.30;99.90
1225;DHT22;602;48.000;7.840;2022-12-01T09:44:30;7.30;99.90
1225;DHT22;602;48.000;7.840;2022-12-01T09:47:06;7.20;99.90
1225;DHT22;602;48.000;7.840;2022-12-01T09:49:41;7.20;99.90
1225;DHT22;602;48.000;7.840;2022-12-01T09:52:11;7.20;99.90
1225;DHT22;602;48.000;7.840;2022-12-01T09:54:38;7.30;99.90
1225;DHT22;602;48.000;7.840;2022-12-01T09:57:13;7.40;99.90
1225;DHT22;602;48.000;7.840;2022-12-01T09:59:43;7.50;99.90
1225;DHT22;602;48.000;7.840;2022-12-01T10:02:22;7.60;99.90
1225;DHT22;602;48.000;7.840;2022-12-01T10:04:50;7.70;99.90
1225;DHT22;602;48.000;7.840;2022-12-01T10:07:22;7.60;99.90
1225;DHT22;602;48.000;7.840;2022-12-01T10:09:53;7.60;99.90
1225;DHT22;602;48.000;7.840;2022-12-01T10:12:22;7.70;99.90
1225;DHT22;602;48.000;7.840;2022-12-01T10:14:59;7.70;99.90
1225;DHT22;602;48.000;7.840;2022-12-01T10:17:33;7.60;99.90
1225;DHT22;602;48.000;7.840;2022-12-01T10:20:05;7.60;99.90
1225;DHT22;602;48.000;7.840;2022-12-01T10:22:56;7.40;99.90
1225;DHT22;602;48.000;7.840;2022-12-01T10:25:27;7.60;99.90
1225;DHT22;602;48.000;7.840;2022-12-01T10:28:11;7.70;99.90
1225;DHT22;602;48.000;7.840;2022-12-01T10:30:48;7.60;99.90
1225;DHT22;602;48.000;7.840;2022-12-01T10:33:21;7.60;99.90
1225;DHT22;602;48.000;7.840;2022-12-01T10:35:48;7.50;99.90
1225;DHT22;602;48.000;7.840;2022-12-01T10:38:23;7.50;99.90
1225;DHT22;602;48.000;7.840;2022-12-01T10:40:51;7.50;99.90
1225;DHT22;602;48.000;7.840;2022-12-01T10:43:22;7.50;99.90
1225;DHT22;602;48.000;7.840;2022-12-01T10:45:53;7.50;99.90
1225;DHT22;602;48.000;7.840;2022-12-01T10:48:21;7.40;99.90
1225;DHT22;602;48.000;7.840;2022-12-01T10:50:50;7.40;99.90
1225;DHT22;602;48.000;7.840;2022-12-01T10:53:35;7.50;99.90
1225;DHT22;602;48.000;7.840;2022-12-01T10:56:04;7.60;99.90
1225;DHT22;602;48.000;7.840;2022-12-01T10:58:33;7.60;99.90
1225;DHT22;602;48.000;7.840;2022-12-01T11:01:06;7.60;99.90
1225;DHT22;602;48.000;7.840;2022-12-01T11:03:40;7.50;99.90
1225;DHT22;602;48.000;7.840;2022-12-01T11:06:09;7.50;99.90
1225;DHT22;602;48.000;7.840;2022-12-01T11:08:40;7.40;99.90
1225;DHT22;602;48.000;7.840;2022-12-01T11:11:23;7.40;99.90
1225;DHT22;602;48.000;7.840;2022-12-01T11:13:51;7.40;99.90
1225;DHT22;602;48.000;7.840;2022-12-01T11:16:40;7.50;99.90
1225;DHT22;602;48.000;7.840;2022-12-01T11:19:26;7.40;99.90
1225;DHT22;602;48.000;7.840;2022-12-01T11:21:55;7.30;99.90
1225;DHT22;602;48.000;7.840;2022-12-01T11:24:31;7.30;99.90
1225;DHT22;602;48.000;7.840;2022-12-01T11:26:59;7.30;99.90
1225;DHT22;602;48.000;7.840;2022-12-01T11:29:30;7.30;99.90
1225;DHT22;602;48.000;7.840;2022-12-01T11:32:02;7.10;99.90
1225;DHT22;602;48.000;7.840;2022-12-01T11:34:31;7.10;99.90
1225;DHT22;602;48.000;7.840;2022-12-01T11:37:02;7.00;99.90
1225;DHT22;602;48.000;7.840;2022-12-01T11:39:32;7.20;99.90
1225;DHT22;602;48.000;7.840;2022-12-01T11:42:02;7.20;99.90
1225;DHT22;602;48.000;7.840;2022-12-01T11:44:31;7.20;99.90
1225;DHT22;602;48.000;7.840;2022-12-01T11:47:12;7.30;99.90
1225;DHT22;602;48.000;7.840;2022-12-01T11:49:42;7.20;99.90
1225;DHT22;602;48.000;7.840;2022-12-01T11:52:17;7.30;99.90
1225;DHT22;602;48.000;7.840;2022-12-01T11:54:54;7.20;99.90
1225;DHT22;602;48.000;7.840;2022-12-01T11:57:21;7.40;99.90
1225;DHT22;602;48.000;7.840;2022-12-01T11:59:48;7.50;99.90
1225;DHT22;602;48.000;7.840;2022-12-01T12:02:22;7.40;99.90
1225;DHT22;602;48.000;7.840;2022-12-01T12:05:08;7.40;99.90
1225;DHT22;602;48.000;7.840;2022-12-01T12:07:43;7.30;99.90
1225;DHT22;602;48.000;7.840;2022-12-01T12:10:29;7.40;99.90
1225;DHT22;602;48.000;7.840;2022-12-01T12:13:08;7.50;99.90
1225;DHT22;602;48.000;7.840;2022-12-01T12:15:44;7.50;99.90
1225;DHT22;602;48.000;7.840;2022-12-01T12:18:38;7.50;99.90
1225;DHT22;602;48.000;7.840;2022-12-01T12:21:21;7.30;99.90
1225;DHT22;602;48.000;7.840;2022-12-01T12:24:04;7.40;99.90
1225;DHT22;602;48.000;7.840;2022-12-01T12:26:40;7.40;99.90
1225;DHT22;602;48.000;7.840;2022-12-01T12:29:26;7.50;99.90
1225;DHT22;602;48.000;7.840;2022-12-01T12:32:04;7.50;99.90
1225;DHT22;602;48.000;7.840;2022-12-01T12:34:42;7.50;99.90
1225;DHT22;602;48.000;7.840;2022-12-01T12:37:18;7.50;99.90
1225;DHT22;602;48.000;7.840;2022-12-01T12:39:58;7.40;99.90
1225;DHT22;602;48.000;7.840;2022-12-01T12:42:45;7.40;99.90
1225;DHT22;602;48.000;7.840;2022-12-01T12:45:19;7.30;99.90
1225;DHT22;602;48.000;7.840;2022-12-01T12:48:00;7.40;99.90
1225;DHT22;602;48.000;7.840;2022-12-01T12:50:37;7.50;99.90
1225;DHT22;602;48.000;7.840;2022-12-01T12:53:13;7.60;99.90
1225;DHT22;602;48.000;7.840;2022-12-01T12:55:44;7.50;99.90
1225;DHT22;602;48.000;7.840;2022-12-01T12:58:15;7.60;99.90
1225;DHT22;602;48.000;7.840;2022-12-01T13:00:49;7.60;99.90
1225;DHT22;602;48.000;7.840;2022-12-01T13:03:20;7.50;99.90
1225;DHT22;602;48.000;7.840;2022-12-01T13:05:59;7.50;99.90
1225;DHT22;602;48.000;7.840;2022-12-01T13:08:30;7.50;99.90
1225;DHT22;602;48.000;7.840;2022-12-01T13:11:05;7.50;99.90
1225;DHT22;602;48.000;7.840;2022-12-01T13:13:38;7.50;99.90
1225;DHT22;602;48.000;7.840;2022-12-01T13:16:09;7.50;99.90
1225;DHT22;602;48.000;7.840;2022-12-01T13:18:40;7.50;99.90
1225;DHT22;602;48.000;7.840;2022-12-01T13:21:16;7.40;99.90
1225;DHT22;602;48.000;7.840;2022-12-01T13:23:45;7.50;99.90
1225;DHT22;602;48.000;7.840;2022-12-01T13:26:14;7.50;99.90
1225;DHT22;602;48.000;7.840;2022-12-01T13:28:45;7.60;99.90
1225;DHT22;602;48.000;7.840;2022-12-01T13:31:14;7.60;99.90
1225;DHT22;602;48.000;7.840;2022-12-01T13:33:47;7.70;99.90
1225;DHT22;602;48.000;7.840;2022-12-01T13:36:21;7.70;99.90
1225;DHT22;602;48.000;7.840;2022-12-01T13:38:56;7.50;99.90
1225;DHT22;602;48.000;7.840;2022-12-01T13:41:26;7.50;99.90
1225;DHT22;602;48.000;7.840;2022-12-01T13:43:59;7.50;99.90
1225;DHT22;602;48.000;7.840;2022-12-01T13:46:28;7.60;99.90
1225;DHT22;602;48.000;7.840;2022-12-01T13:48:56;7.50;99.90
1225;DHT22;602;48.000;7.840;2022-12-01T13:51:25;7.50;99.90
1225;DHT22;602;48.000;7.840;2022-12-01T13:54:00;7.60;99.90
1225;DHT22;602;48.000;7.840;2022-12-01T13:56:43;7.50;99.90
1225;DHT22;602;48.000;7.840;2022-12-01T13:59:39;7.50;99.90
1225;DHT22;602;48.000;7.840;2022-12-01T14:02:15;7.50;99.90
1225;DHT22;602;48.000;7.840;2022-12-01T14:04:43;7.30;99.90
1225;DHT22;602;48.000;7.840;2022-12-01T14:07:24;7.30;99.90
1225;DHT22;602;48.000;7.840;2022-12-01T14:09:54;7.30;99.90
1225;DHT22;602;48.000;7.840;2022-12-01T14:12:24;7.40;99.90
1225;DHT22;602;48.000;7.840;2022-12-01T14:14:57;7.40;99.90
1225;DHT22;602;48.000;7.840;2022-12-01T14:17:27;7.40;99.90
1225;DHT22;602;48.000;7.840;2022-12-01T14:19:55;7.40;99.90
1225;DHT22;602;48.000;7.840;2022-12-01T14:22:36;7.40;99.90
1225;DHT22;602;48.000;7.840;2022-12-01T14:25:04;7.40;99.90
1225;DHT22;602;48.000;7.840;2022-12-01T14:27:35;7.40;99.90
1225;DHT22;602;48.000;7.840;2022-12-01T14:33:44;7.50;99.90
1225;DHT22;602;48.000;7.840;2022-12-01T14:36:21;7.50;99.90
1225;DHT22;602;48.000;7.840;2022-12-01T14:38:57;7.40;99.90
1225;DHT22;602;48.000;7.840;2022-12-01T14:41:29;7.20;99.90
1225;DHT22;602;48.000;7.840;2022-12-01T14:44:00;7.40;99.90
1225;DHT22;602;48.000;7.840;2022-12-01T14:46:37;7.50;99.90
1225;DHT22;602;48.000;7.840;2022-12-01T14:49:10;7.50;99.90
1225;DHT22;602;48.000;7.840;2022-12-01T14:51:43;7.50;99.90
1225;DHT22;602;48.000;7.840;2022-12-01T14:54:16;7.40;99.90
1225;DHT22;602;48.000;7.840;2022-12-01T14:56:46;7.40;99.90
1225;DHT22;602;48.000;7.840;2022-12-01T14:59:18;7.30;99.90
1225;DHT22;602;48.000;7.840;2022-12-01T15:01:45;7.10;99.90
1225;DHT22;602;48.000;7.840;2022-12-01T15:04:14;7.20;99.90
1225;DHT22;602;48.000;7.840;2022-12-01T15:06:41;7.10;99.90
1225;DHT22;602;48.000;7.840;2022-12-01T15:09:10;7.10;99.90
1225;DHT22;602;48.000;7.840;2022-12-01T15:11:51;7.10;99.90
1225;DHT22;602;48.000;7.840;2022-12-01T15:14:26;7.10;99.90
1225;DHT22;602;48.000;7.840;2022-12-01T15:16:54;7.20;99.90
1225;DHT22;602;48.000;7.840;2022-12-01T15:19:22;7.20;99.90
1225;DHT22;602;48.000;7.840;2022-12-01T15:21:49;7.20;99.90
1225;DHT22;602;48.000;7.840;2022-12-01T15:24:22;7.30;99.90
1225;DHT22;602;48.000;7.840;2022-12-01T15:26:52;7.30;99.90
1225;DHT22;602;48.000;7.840;2022-12-01T15:29:23;7.40;99.90
1225;DHT22;602;48.000;7.840;2022-12-01T15:31:51;7.40;99.90
1225;DHT22;602;48.000;7.840;2022-12-01T15:34:21;7.40;99.90
1225;DHT22;602;48.000;7.840;2022-12-01T15:36:49;7.40;99.90
1225;DHT22;602;48.000;7.840;2022-12-01T15:39:18;7.50;99.90
1225;DHT22;602;48.000;7.840;2022-12-01T15:41:50;7.50;99.90
1225;DHT22;602;48.000;7.840;2022-12-01T15:44:21;7.50;99.90
1225;DHT22;602;48.000;7.840;2022-12-01T15:46:48;7.40;99.90
1225;DHT22;602;48.000;7.840;2022-12-01T15:49:19;7.40;99.90
1225;DHT22;602;48.000;7.840;2022-12-01T15:51:52;7.30;99.90
1225;DHT22;602;48.000;7.840;2022-12-01T15:54:22;7.30;99.90
1225;DHT22;602;48.000;7.840;2022-12-01T15:56:53;7.30;99.90
1225;DHT22;602;48.000;7.840;2022-12-01T15:59:25;7.30;99.90
1225;DHT22;602;48.000;7.840;2022-12-01T16:01:53;7.30;99.90
1225;DHT22;602;48.000;7.840;2022-12-01T16:04:23;7.30;99.90
1225;DHT22;602;48.000;7.840;2022-12-01T16:06:55;7.30;99.90
1225;DHT22;602;48.000;7.840;2022-12-01T16:09:27;7.30;99.90
1225;DHT22;602;48.000;7.840;2022-12-01T16:12:21;7.30;99.90
1225;DHT22;602;48.000;7.840;2022-12-01T16:14:54;7.30;99.90
1225;DHT22;602;48.000;7.840;2022-12-01T16:17:21;7.10;99.90
1225;DHT22;602;48.000;7.840;2022-12-01T16:20:18;7.10;99.90
1225;DHT22;602;48.000;7.840;2022-12-01T16:22:56;7.10;99.90
1225;DHT22;602;48.000;7.840;2022-12-01T16:25:32;7.00;99.90
1225;DHT22;602;48.000;7.840;2022-12-01T16:28:01;7.00;99.90
1225;DHT22;602;48.000;7.840;2022-12-01T16:30:34;6.90;99.90
1225;DHT22;602;48.000;7.840;2022-12-01T16:33:02;7.00;99.90
1225;DHT22;602;48.000;7.840;2022-12-01T16:35:31;6.90;99.90
1225;DHT22;602;48.000;7.840;2022-12-01T16:37:59;6.90;99.90
1225;DHT22;602;48.000;7.840;2022-12-01T16:40:26;6.90;99.90
1225;DHT22;602;48.000;7.840;2022-12-01T16:43:02;7.00;99.90
1225;DHT22;602;48.000;7.840;2022-12-01T16:45:30;7.10;99.90
1225;DHT22;602;48.000;7.840;2022-12-01T16:48:00;7.10;99.90
1225;DHT22;602;48.000;7.840;2022-12-01T16:50:30;7.10;99.90
1225;DHT22;602;48.000;7.840;2022-12-01T16:53:06;7.00;99.90
1225;DHT22;602;48.000;7.840;2022-12-01T16:55:37;6.90;99.90
1225;DHT22;602;48.000;7.840;2022-12-01T16:58:07;6.80;99.90
1225;DHT22;602;48.000;7.840;2022-12-01T17:00:34;6.90;99.90
1225;DHT22;602;48.000;7.840;2022-12-01T17:03:02;6.90;99.90